Time;durP1;ratioP1;P1;durP2;ratioP2;P2;SDS_P1;SDS_P2;PMS_P1;PMS_P2;Temp;Humidity;BMP_temperature;BMP_pressure;BME280_temperature;BME280_humidity;BME280_pressure;Samples;Min_cycle;Max_cycle;Signal;HPM_P1;HPM_P2
2022/04/24 00:01:28;;;;;;;19.38;3.58;;;13.50;99.90;;;;;;5030602;28;20044;-54
2022/04/24 00:04:32;;;;;;;19.83;3.50;;;13.40;99.90;;;;;;5030445;28;20064;-54
2022/04/24 00:07:36;;;;;;;21.90;3.47;;;13.40;99.90;;;;;;5030175;28;20045;-49
2022/04/24 00:10:40;;;;;;;21.90;3.45;;;13.40;99.90;;;;;;5030099;28;20511;-50
2022/04/24 00:13:45;;;;;;;13.35;3.60;;;13.40;99.90;;;;;;5030474;28;20427;-52
2022/04/24 00:16:50;;;;;;;17.17;2.88;;;13.30;99.90;;;;;;5030037;28;20044;-55
2022/04/24 00:19:54;;;;;;;19.30;3.17;;;13.40;99.90;;;;;;5030234;28;20060;-51
2022/04/24 00:22:59;;;;;;;14.27;3.45;;;13.30;99.90;;;;;;5030404;28;20044;-48
2022/04/24 00:26:03;;;;;;;12.75;3.22;;;13.30;99.90;;;;;;5029712;28;20041;-50
2022/04/24 00:29:07;;;;;;;15.20;2.80;;;13.40;99.90;;;;;;5029916;28;20040;-48
2022/04/24 00:32:11;;;;;;;13.70;3.08;;;13.40;99.90;;;;;;5029997;28;20051;-53
2022/04/24 00:35:15;;;;;;;17.83;3.50;;;13.30;99.90;;;;;;5029979;28;20045;-49
2022/04/24 00:38:19;;;;;;;16.52;3.05;;;13.30;99.90;;;;;;5029785;28;20044;-50
2022/04/24 00:41:23;;;;;;;21.85;4.75;;;13.20;99.90;;;;;;5029936;28;20050;-54
2022/04/24 00:44:29;;;;;;;18.27;3.45;;;13.20;99.90;;;;;;5029970;28;20044;-49
2022/04/24 00:48:06;;;;;;;11.80;2.95;;;13.30;99.90;;;;;;5029393;28;20052;-50
2022/04/24 00:51:11;;;;;;;11.52;3.00;;;13.20;99.90;;;;;;5029728;28;20049;-53
2022/04/24 00:54:15;;;;;;;17.05;3.08;;;13.20;99.90;;;;;;5030230;28;20044;-53
2022/04/24 00:57:20;;;;;;;22.40;3.90;;;13.10;99.90;;;;;;5029612;28;20049;-48
2022/04/24 01:00:23;;;;;;;15.65;3.05;;;13.10;99.90;;;;;;5029755;28;20040;-53
2022/04/24 01:03:28;;;;;;;23.27;3.40;;;13.10;99.90;;;;;;5029885;28;20053;-49
2022/04/24 01:06:34;;;;;;;15.52;4.05;;;13.00;99.90;;;;;;5028854;28;20048;-48
2022/04/24 01:09:38;;;;;;;16.95;4.55;;;13.00;99.90;;;;;;5029428;28;20040;-50
2022/04/24 01:12:42;;;;;;;20.50;3.65;;;13.00;99.90;;;;;;5029666;28;20060;-52
2022/04/24 01:15:46;;;;;;;17.05;3.03;;;13.00;99.90;;;;;;5029414;28;20045;-54
2022/04/24 01:18:51;;;;;;;16.92;2.85;;;13.10;99.90;;;;;;5029445;28;20412;-51
2022/04/24 01:21:56;;;;;;;23.17;3.50;;;13.00;99.90;;;;;;5029923;28;20048;-52
2022/04/24 01:25:00;;;;;;;11.80;3.15;;;13.00;99.90;;;;;;5029253;28;20503;-52
2022/04/24 01:28:08;;;;;;;16.17;3.75;;;13.00;99.90;;;;;;5029288;28;20125;-50
2022/04/24 01:31:12;;;;;;;11.93;3.28;;;12.90;99.90;;;;;;5029127;28;20061;-54
2022/04/24 01:34:20;;;;;;;13.23;2.90;;;12.90;99.90;;;;;;5029339;28;20052;-53
2022/04/24 01:37:23;;;;;;;18.65;2.92;;;12.90;99.90;;;;;;5028915;28;20044;-51
2022/04/24 01:40:27;;;;;;;12.43;3.15;;;12.90;99.90;;;;;;5029176;28;20044;-49
2022/04/24 01:43:39;;;;;;;17.67;2.53;;;12.90;99.90;;;;;;5029385;28;20511;-49
2022/04/24 01:46:43;;;;;;;18.58;3.47;;;12.70;99.90;;;;;;5028987;28;20416;-52
2022/04/24 01:49:47;;;;;;;16.98;3.33;;;12.70;99.90;;;;;;5029149;28;20416;-49
2022/04/24 01:52:51;;;;;;;17.35;2.95;;;12.60;99.90;;;;;;5032975;28;20040;-54
2022/04/24 01:56:00;;;;;;;21.40;3.47;;;12.60;99.90;;;;;;5032856;28;20056;-48
2022/04/24 01:59:04;;;;;;;16.63;3.20;;;12.60;99.90;;;;;;5032999;28;20045;-49
2022/04/24 02:02:09;;;;;;;17.60;3.40;;;12.70;99.90;;;;;;5032713;28;20049;-52
2022/04/24 02:05:13;;;;;;;13.75;2.45;;;12.70;99.90;;;;;;5032301;28;20511;-50
2022/04/24 02:08:18;;;;;;;14.75;3.08;;;12.70;99.90;;;;;;5032474;28;20045;-48
2022/04/24 02:11:22;;;;;;;19.15;2.97;;;12.60;99.90;;;;;;5032341;28;20045;-49
2022/04/24 02:14:26;;;;;;;20.58;2.83;;;12.70;99.90;;;;;;5032684;28;20044;-49
2022/04/24 02:17:30;;;;;;;17.35;3.08;;;12.70;99.90;;;;;;5032189;28;20388;-52
2022/04/24 02:20:34;;;;;;;14.70;2.65;;;12.80;99.90;;;;;;5032209;28;20036;-53
2022/04/24 02:23:38;;;;;;;13.20;2.75;;;12.80;99.90;;;;;;5032424;28;20057;-48
2022/04/24 02:26:42;;;;;;;16.42;2.70;;;12.80;99.90;;;;;;5031803;28;20036;-50
2022/04/24 02:29:45;;;;;;;13.63;2.30;;;12.80;99.90;;;;;;5032452;28;20033;-47
2022/04/24 02:32:50;;;;;;;15.43;3.28;;;12.70;99.90;;;;;;5032429;28;20403;-53
2022/04/24 02:35:54;;;;;;;21.73;4.43;;;12.70;99.90;;;;;;5032468;28;20060;-48
2022/04/24 02:38:58;;;;;;;19.30;2.38;;;12.60;99.90;;;;;;5032423;28;20048;-48
2022/04/24 02:42:02;;;;;;;14.38;2.22;;;12.60;99.90;;;;;;5032020;28;20061;-51
2022/04/24 02:45:08;;;;;;;10.05;2.25;;;12.60;99.90;;;;;;5032242;28;20053;-48
2022/04/24 02:48:12;;;;;;;11.02;2.22;;;12.50;99.90;;;;;;5031533;28;20410;-48
2022/04/24 02:51:16;;;;;;;15.00;2.63;;;12.40;99.90;;;;;;5031723;28;20412;-51
2022/04/24 02:54:20;;;;;;;16.50;2.42;;;12.40;99.90;;;;;;5032214;28;20037;-48
2022/04/24 02:57:24;;;;;;;12.77;2.47;;;12.30;99.90;;;;;;5031734;28;20056;-48
2022/04/24 03:00:41;;;;;;;16.20;2.35;;;12.30;99.90;;;;;;5032263;28;20400;-49
2022/04/24 03:03:45;;;;;;;13.20;1.95;;;12.40;99.90;;;;;;5031332;28;20056;-50
2022/04/24 03:06:49;;;;;;;10.68;1.90;;;12.40;99.90;;;;;;5030778;28;20637;-48
2022/04/24 03:09:53;;;;;;;15.27;3.22;;;12.30;99.90;;;;;;5031780;28;20060;-49
2022/04/24 03:12:57;;;;;;;16.67;2.58;;;12.20;99.90;;;;;;5031494;28;20048;-48
2022/04/24 03:16:01;;;;;;;12.07;1.95;;;12.20;99.90;;;;;;5031093;28;20064;-48
2022/04/24 03:19:05;;;;;;;10.52;2.60;;;12.10;99.90;;;;;;5078254;22;20060;-60
2022/04/24 03:22:09;;;;;;;14.88;2.58;;;12.10;99.90;;;;;;5070967;28;20257;-59
2022/04/24 03:25:12;;;;;;;11.50;2.70;;;12.20;99.90;;;;;;5071124;28;20130;-60
2022/04/24 03:28:17;;;;;;;16.95;3.00;;;12.20;99.90;;;;;;5070808;28;20518;-57
2022/04/24 03:31:21;;;;;;;14.75;1.98;;;12.10;99.90;;;;;;5070695;28;20035;-59
2022/04/24 03:34:26;;;;;;;11.45;1.80;;;12.00;99.90;;;;;;5071045;28;20036;-59
2022/04/24 03:37:31;;;;;;;9.00;2.03;;;11.90;99.90;;;;;;5070574;28;20039;-59
2022/04/24 03:40:35;;;;;;;13.05;2.10;;;11.80;99.90;;;;;;5070910;28;20450;-58
2022/04/24 03:43:40;;;;;;;8.95;1.95;;;11.70;99.90;;;;;;5070430;28;20057;-59
2022/04/24 03:46:44;;;;;;;12.73;1.45;;;11.70;99.90;;;;;;5070132;28;20044;-56
2022/04/24 03:49:48;;;;;;;15.77;3.03;;;11.90;99.90;;;;;;5070738;28;20407;-60
2022/04/24 03:52:52;;;;;;;9.43;2.28;;;12.00;99.90;;;;;;5070315;28;20415;-59
2022/04/24 03:55:56;;;;;;;9.30;1.75;;;11.80;99.90;;;;;;5070196;28;20533;-59
2022/04/24 03:59:01;;;;;;;12.00;2.55;;;11.70;99.90;;;;;;5070156;28;20033;-59
2022/04/24 04:02:05;;;;;;;11.98;2.20;;;11.70;99.90;;;;;;5070110;28;20051;-59
2022/04/24 04:05:09;;;;;;;14.77;2.50;;;11.60;99.90;;;;;;5069993;28;20062;-55
2022/04/24 04:08:13;;;;;;;10.07;2.03;;;11.70;99.90;;;;;;5057721;28;20039;-59
2022/04/24 04:11:18;;;;;;;12.77;1.85;;;11.80;99.90;;;;;;5070298;28;20032;-57
2022/04/24 04:14:23;;;;;;;14.68;2.00;;;11.80;99.90;;;;;;5069651;28;20051;-59
2022/04/24 04:17:27;;;;;;;17.17;2.88;;;11.80;99.90;;;;;;5069677;28;20043;-59
2022/04/24 04:20:32;;;;;;;13.73;2.05;;;11.70;99.90;;;;;;5069989;28;20543;-55
2022/04/24 04:23:36;;;;;;;12.73;2.38;;;11.60;99.90;;;;;;5057760;28;20425;-59
2022/04/24 04:26:40;;;;;;;12.65;2.15;;;11.50;99.90;;;;;;5070030;28;20048;-60
2022/04/24 04:29:44;;;;;;;13.82;2.30;;;11.50;99.90;;;;;;5070004;28;20044;-59
2022/04/24 04:32:50;;;;;;;14.20;2.65;;;11.50;99.90;;;;;;5069136;28;20035;-58
2022/04/24 04:35:54;;;;;;;16.55;2.95;;;11.50;99.90;;;;;;5069956;28;20044;-54
2022/04/24 04:38:58;;;;;;;13.88;2.47;;;11.50;99.90;;;;;;5069639;28;20036;-57
2022/04/24 04:42:02;;;;;;;7.47;2.17;;;11.50;99.90;;;;;;5069693;28;20051;-59
2022/04/24 04:45:06;;;;;;;24.42;2.75;;;11.60;99.90;;;;;;5069608;28;20040;-58
2022/04/24 04:48:11;;;;;;;11.40;1.90;;;11.60;99.90;;;;;;5068999;28;20039;-59
2022/04/24 04:51:15;;;;;;;12.02;1.63;;;11.70;99.90;;;;;;5069494;28;20051;-56
2022/04/24 04:54:18;;;;;;;16.83;1.80;;;11.70;99.90;;;;;;5069276;28;20047;-59
2022/04/24 04:57:22;;;;;;;16.42;3.22;;;11.80;99.90;;;;;;5069187;28;20044;-59
2022/04/24 05:00:27;;;;;;;11.48;2.65;;;11.90;99.90;;;;;;5069683;28;20055;-57
2022/04/24 05:03:31;;;;;;;17.05;2.10;;;12.00;99.90;;;;;;5069199;28;20039;-58
2022/04/24 05:06:37;;;;;;;11.73;1.75;;;12.00;99.90;;;;;;5068608;28;20075;-55
2022/04/24 05:09:41;;;;;;;19.30;2.10;;;12.10;99.90;;;;;;5069087;28;20138;-57
2022/04/24 05:12:45;;;;;;;15.63;1.90;;;12.20;99.90;;;;;;5069248;28;20040;-58
2022/04/24 05:15:49;;;;;;;16.92;2.30;;;12.20;99.90;;;;;;5069478;28;20679;-59
2022/04/24 05:18:53;;;;;;;12.57;2.10;;;12.30;99.90;;;;;;5069223;28;20079;-60
2022/04/24 05:21:56;;;;;;;15.00;1.92;;;12.40;99.90;;;;;;5069597;28;20055;-59
2022/04/24 05:25:03;;;;;;;16.85;2.50;;;12.40;99.90;;;;;;5069229;28;20620;-55
2022/04/24 05:28:07;;;;;;;13.55;2.60;;;12.60;99.90;;;;;;5073100;28;20039;-58
2022/04/24 05:31:11;;;;;;;9.10;2.10;;;12.60;99.90;;;;;;5073439;28;20043;-59
2022/04/24 05:34:16;;;;;;;14.80;1.98;;;12.70;99.90;;;;;;5073093;28;20039;-58
2022/04/24 05:37:20;;;;;;;15.18;2.00;;;12.70;99.90;;;;;;5073128;28;20383;-57
2022/04/24 05:40:24;;;;;;;13.20;1.75;;;12.80;99.90;;;;;;5073533;28;20518;-58
2022/04/24 05:43:27;;;;;;;12.60;1.67;;;12.90;99.90;;;;;;5072970;28;20063;-58
2022/04/24 05:46:31;;;;;;;10.00;1.80;;;13.80;99.90;;;;;;5072629;28;20043;-58
2022/04/24 05:49:35;;;;;;;16.70;2.88;;;14.40;99.90;;;;;;5072863;28;20039;-59
2022/04/24 05:52:40;;;;;;;12.68;1.90;;;15.20;99.90;;;;;;5072897;28;20525;-58
2022/04/24 05:55:44;;;;;;;11.52;2.13;;;17.20;99.90;;;;;;5072607;28;20052;-58
2022/04/24 05:58:48;;;;;;;17.33;2.97;;;17.80;99.90;;;;;;5072780;28;20052;-56
2022/04/24 06:01:52;;;;;;;9.55;1.77;;;18.70;99.90;;;;;;5072819;28;20036;-59
2022/04/24 06:04:56;;;;;;;11.38;2.28;;;18.60;99.90;;;;;;5072072;28;20045;-58
2022/04/24 06:08:00;;;;;;;12.95;2.35;;;17.80;99.90;;;;;;5072279;28;20047;-60
2022/04/24 06:11:04;;;;;;;11.50;1.90;;;16.70;99.90;;;;;;5072412;28;20051;-57
2022/04/24 06:14:09;;;;;;;10.48;1.60;;;16.60;99.90;;;;;;5072429;28;20040;-60
2022/04/24 06:17:13;;;;;;;12.00;1.73;;;16.70;99.90;;;;;;5072480;28;20048;-59
2022/04/24 06:20:18;;;;;;;7.40;1.73;;;16.00;99.90;;;;;;5072526;28;20051;-60
2022/04/24 06:23:21;;;;;;;12.00;2.17;;;15.20;99.90;;;;;;5072110;28;20045;-55
2022/04/24 06:26:27;;;;;;;18.08;2.47;;;15.60;99.90;;;;;;5071850;28;20039;-55
2022/04/24 06:29:31;;;;;;;11.25;2.78;;;15.20;99.90;;;;;;5072297;28;20055;-57
2022/04/24 06:32:43;;;;;;;11.63;2.67;;;14.40;99.90;;;;;;5072372;28;20043;-59
2022/04/24 06:35:47;;;;;;;15.30;2.42;;;13.90;99.90;;;;;;5072050;28;20039;-59
2022/04/24 06:38:51;;;;;;;13.60;2.13;;;15.30;99.90;;;;;;5071822;28;20415;-57
2022/04/24 06:41:55;;;;;;;10.63;2.30;;;16.50;99.90;;;;;;5072155;28;20052;-56
2022/04/24 06:44:59;;;;;;;15.35;2.25;;;17.20;99.90;;;;;;5071779;28;20051;-58
2022/04/24 06:48:06;;;;;;;13.07;2.47;;;17.60;99.90;;;;;;5071638;28;20047;-59
2022/04/24 06:51:11;;;;;;;14.63;2.80;;;17.10;99.90;;;;;;5060090;28;20051;-59
2022/04/24 06:54:15;;;;;;;15.20;3.63;;;17.70;99.90;;;;;;5071827;28;20039;-59
2022/04/24 06:57:19;;;;;;;13.10;2.83;;;17.70;99.90;;;;;;5071767;28;20043;-58
2022/04/24 07:00:24;;;;;;;13.68;2.17;;;16.50;99.90;;;;;;5071285;28;20039;-59
2022/04/24 07:03:29;;;;;;;9.27;2.17;;;15.50;99.90;;;;;;5059092;28;20060;-60
2022/04/24 07:06:33;;;;;;;11.35;2.10;;;14.90;99.90;;;;;;5070584;28;20039;-59
2022/04/24 07:09:38;;;;;;;19.70;2.97;;;14.70;99.90;;;;;;5071506;28;20051;-60
2022/04/24 07:12:46;;;;;;;14.23;2.28;;;15.00;99.90;;;;;;5071871;28;20490;-59
2022/04/24 07:15:54;;;;;;;18.13;2.80;;;14.70;99.90;;;;;;5071650;28;20043;-56
2022/04/24 07:18:58;;;;;;;14.55;2.53;;;14.60;99.90;;;;;;5071442;28;20048;-59
2022/04/24 07:22:02;;;;;;;13.57;2.28;;;15.20;99.90;;;;;;5071438;28;20048;-58
2022/04/24 07:25:06;;;;;;;10.60;1.92;;;15.50;99.90;;;;;;5071360;28;20055;-58
2022/04/24 07:28:14;;;;;;;12.15;2.10;;;15.40;99.90;;;;;;5070887;28;20055;-60
2022/04/24 07:31:19;;;;;;;13.90;2.15;;;15.10;99.90;;;;;;5071310;28;20403;-58
2022/04/24 07:34:23;;;;;;;10.05;2.33;;;15.30;99.90;;;;;;5071069;28;20040;-58
2022/04/24 07:37:32;;;;;;;18.58;2.45;;;15.50;99.90;;;;;;5071095;28;20051;-58
2022/04/24 07:40:41;;;;;;;18.40;2.53;;;15.30;99.90;;;;;;5071353;28;20521;-59
2022/04/24 07:43:48;;;;;;;13.60;3.03;;;15.20;99.90;;;;;;5071381;28;20095;-57
2022/04/24 07:46:52;;;;;;;13.43;2.78;;;16.40;99.90;;;;;;5070352;28;20043;-59
2022/04/24 07:49:57;;;;;;;14.07;2.28;;;16.10;99.90;;;;;;5069964;28;20344;-59
2022/04/24 07:53:01;;;;;;;12.55;2.85;;;15.30;99.90;;;;;;5070613;28;20031;-58
2022/04/24 07:56:06;;;;;;;16.08;2.83;;;14.70;99.90;;;;;;5070241;28;20510;-60
2022/04/24 07:59:09;;;;;;;11.20;2.15;;;14.30;99.90;;;;;;5070480;28;20119;-60
2022/04/24 08:02:13;;;;;;;17.48;2.80;;;14.40;99.90;;;;;;5070571;28;20044;-59
2022/04/24 08:05:25;;;;;;;15.07;2.80;;;15.20;99.90;;;;;;5069766;28;20356;-59
2022/04/24 08:08:30;;;;;;;12.25;2.40;;;16.50;99.90;;;;;;5070406;28;20040;-59
2022/04/24 08:11:34;;;;;;;10.63;2.65;;;17.20;99.90;;;;;;5070321;28;20514;-57
2022/04/24 08:14:37;;;;;;;20.30;7.00;;;16.90;99.90;;;;;;5070220;28;20052;-55
2022/04/24 08:17:42;;;;;;;17.58;3.72;;;17.50;99.90;;;;;;5069543;28;20510;-59
2022/04/24 08:20:47;;;;;;;24.38;5.25;;;16.30;99.90;;;;;;5070283;28;20427;-59
2022/04/24 08:23:50;;;;;;;29.75;7.35;;;16.20;99.90;;;;;;5069955;28;20056;-59
2022/04/24 08:26:54;;;;;;;18.90;5.15;;;17.70;99.90;;;;;;5069340;28;20051;-57
2022/04/24 08:29:58;;;;;;;11.82;3.13;;;17.30;99.90;;;;;;5069891;28;20036;-57
2022/04/24 08:33:03;;;;;;;14.38;3.08;;;16.60;99.90;;;;;;5069748;28;20047;-59
2022/04/24 08:36:07;;;;;;;12.52;2.70;;;16.30;99.90;;;;;;5069426;28;20043;-59
2022/04/24 08:39:12;;;;;;;17.63;4.60;;;16.80;99.90;;;;;;5069717;28;20047;-59
2022/04/24 08:42:21;;;;;;;11.82;2.03;;;17.80;99.90;;;;;;5069815;28;20418;-57
2022/04/24 08:45:27;;;;;;;10.45;2.08;;;16.50;99.90;;;;;;5069497;28;20047;-56
2022/04/24 08:48:33;;;;;;;9.05;2.50;;;16.30;99.90;;;;;;5069637;28;20521;-59
2022/04/24 08:51:39;;;;;;;10.00;1.90;;;16.70;99.90;;;;;;5069719;28;20052;-59
2022/04/24 08:54:45;;;;;;;10.98;2.13;;;16.40;99.90;;;;;;5069659;28;20059;-59
2022/04/24 08:57:49;;;;;;;15.32;2.00;;;16.90;99.90;;;;;;5069463;28;20051;-58
2022/04/24 09:00:53;;;;;;;8.48;1.70;;;16.00;99.90;;;;;;5069702;28;20047;-55
2022/04/24 09:03:57;;;;;;;12.38;3.15;;;15.70;99.90;;;;;;5057183;28;20051;-58
2022/04/24 09:07:07;;;;;;;10.25;1.90;;;16.20;99.90;;;;;;5068906;28;20039;-58
2022/04/24 09:10:12;;;;;;;11.38;2.20;;;16.60;99.90;;;;;;5057143;28;20044;-60
2022/04/24 09:13:26;;;;;;;8.57;2.35;;;16.70;99.90;;;;;;5069623;28;20047;-60
2022/04/24 09:16:37;;;;;;;11.43;1.90;;;16.40;99.90;;;;;;5069093;28;20041;-55
2022/04/24 09:19:41;;;;;;;8.65;1.80;;;16.70;99.90;;;;;;5073983;22;20592;-73
2022/04/24 09:22:47;;;;;;;13.25;1.85;;;16.30;99.90;;;;;;5058378;28;20033;-74
2022/04/24 09:25:51;;;;;;;9.40;2.70;;;16.40;99.90;;;;;;5070432;28;20044;-72
2022/04/24 09:28:55;;;;;;;9.90;2.17;;;16.10;99.90;;;;;;5070696;28;20040;-72
2022/04/24 09:32:01;;;;;;;9.93;2.35;;;16.10;99.90;;;;;;5069737;28;20047;-73
2022/04/24 09:35:05;;;;;;;10.98;1.90;;;16.50;99.90;;;;;;5070325;28;20509;-72
2022/04/24 09:38:14;;;;;;;11.75;1.80;;;16.20;99.90;;;;;;5070248;28;20043;-72
2022/04/24 09:41:21;;;;;;;11.70;1.70;;;16.50;99.90;;;;;;5069975;28;20047;-72
2022/04/24 09:44:25;;;;;;;7.03;1.80;;;16.20;99.90;;;;;;5069566;28;20052;-72
2022/04/24 09:47:29;;;;;;;9.50;1.40;;;16.30;99.90;;;;;;5069891;28;20043;-74
2022/04/24 09:50:35;;;;;;;6.68;1.83;;;15.90;99.90;;;;;;5070663;28;20375;-72
2022/04/24 09:53:43;;;;;;;16.63;5.60;;;15.70;99.90;;;;;;5069873;28;20491;-73
2022/04/24 09:56:49;;;;;;;9.25;1.98;;;15.50;99.90;;;;;;5069606;28;20055;-73
2022/04/24 09:59:53;;;;;;;12.25;2.42;;;15.70;99.90;;;;;;5069947;28;20047;-72
2022/04/24 10:02:57;;;;;;;12.00;1.75;;;15.50;99.90;;;;;;5069944;28;20501;-70
2022/04/24 10:06:04;;;;;;;10.70;2.05;;;15.60;99.90;;;;;;5069908;28;20035;-70
2022/04/24 10:09:11;;;;;;;12.52;2.65;;;15.10;99.90;;;;;;5069990;28;20126;-71
2022/04/24 10:12:20;;;;;;;14.18;2.00;;;14.90;99.90;;;;;;5058332;28;20052;-70
2022/04/24 10:15:26;;;;;;;13.10;2.05;;;14.80;99.90;;;;;;5073219;28;20043;-70
2022/04/24 10:18:51;;;;;;;11.93;1.98;;;14.40;99.90;;;;;;5074303;28;20063;-71
2022/04/24 10:22:15;;;;;;;8.90;2.08;;;13.90;99.90;;;;;;5061570;28;20060;-71
2022/04/24 10:25:28;;;;;;;;;;;13.30;99.90;;;;;;5074806;28;20041;-71
2022/04/24 10:28:40;;;;;;;10.32;1.90;;;12.40;99.90;;;;;;5074072;28;19919;-70
2022/04/24 10:31:46;;;;;;;13.13;2.42;;;12.00;99.90;;;;;;5060176;28;20055;-70
2022/04/24 10:34:50;;;;;;;10.15;2.65;;;11.80;99.90;;;;;;5073169;28;20059;-69
2022/04/24 10:38:09;;;;;;;9.48;2.00;;;11.60;99.90;;;;;;5072384;28;20044;-70
2022/04/24 10:41:18;;;;;;;15.68;3.33;;;11.40;99.90;;;;;;5072728;28;20053;-70
2022/04/24 10:44:22;;;;;;;14.00;2.30;;;11.20;99.90;;;;;;5072907;28;20048;-71
2022/04/24 10:47:43;;;;;;;13.73;2.20;;;11.10;99.90;;;;;;5072013;28;20039;-71
2022/04/24 10:50:54;;;;;;;9.82;2.55;;;11.00;99.90;;;;;;5072652;28;20039;-71
2022/04/24 10:54:10;;;;;;;13.10;2.97;;;10.90;99.90;;;;;;5072829;28;20044;-71
2022/04/24 10:57:19;;;;;;;15.65;2.40;;;10.90;99.90;;;;;;5071554;28;20044;-71
2022/04/24 11:00:35;;;;;;;11.93;2.10;;;11.00;99.90;;;;;;5072177;28;20047;-72
2022/04/24 11:03:41;;;;;;;15.05;2.65;;;11.10;99.90;;;;;;5072515;28;20497;-71
2022/04/24 11:06:59;;;;;;;14.23;2.20;;;11.20;99.90;;;;;;5071334;28;20115;-71
2022/04/24 11:10:11;;;;;;;15.63;2.38;;;11.20;99.90;;;;;;5059747;28;20044;-71
2022/04/24 11:13:18;;;;;;;8.23;2.10;;;11.20;99.90;;;;;;5072290;28;20035;-70
2022/04/24 11:16:22;;;;;;;11.95;2.15;;;11.30;99.90;;;;;;5071334;28;20041;-70
2022/04/24 11:19:28;;;;;;;13.68;2.55;;;11.50;99.90;;;;;;5072071;28;20075;-70
2022/04/24 11:22:32;;;;;;;19.10;2.72;;;11.50;99.90;;;;;;5071972;28;20055;-70
2022/04/24 11:25:40;;;;;;;17.95;8.07;;;11.60;99.90;;;;;;5071907;28;20055;-70
2022/04/24 11:28:47;;;;;;;12.95;2.53;;;11.60;99.90;;;;;;5071998;28;20059;-70
2022/04/24 11:31:54;;;;;;;15.45;5.07;;;11.50;99.90;;;;;;5071434;28;20064;-69
2022/04/24 11:34:58;;;;;;;13.23;2.63;;;11.40;99.90;;;;;;5071714;28;20043;-70
2022/04/24 11:38:07;;;;;;;11.85;1.85;;;11.40;99.90;;;;;;5071036;28;20047;-70
2022/04/24 11:41:14;;;;;;;10.60;5.05;;;11.20;99.90;;;;;;5071414;28;20502;-69
2022/04/24 11:51:04;;;;;;;;;;;11.00;99.90;;;;;;5071794;28;20032;-70
2022/04/24 11:54:54;;;;;;;16.42;1.80;;;10.90;99.90;;;;;;5071074;28;19915;-70
2022/04/24 11:58:01;;;;;;;4.40;0.88;;;10.80;99.90;;;;;;5052400;28;20494;-70
2022/04/24 12:10:42;;;;;;;8.00;1.13;;;10.40;99.90;;;;;;5071654;28;20422;-71
2022/04/24 12:13:58;;;;;;;19.40;3.65;;;10.40;99.90;;;;;;5058169;28;20039;-71
2022/04/24 12:17:04;;;;;;;7.40;2.05;;;10.40;99.90;;;;;;5070195;28;20044;-70
2022/04/24 12:20:08;;;;;;;6.05;1.70;;;10.40;99.90;;;;;;5070443;28;20045;-69
2022/04/24 13:19:41;;;;;;;6.60;0.80;;;9.40;99.90;;;;;;5069581;28;20041;-68
2022/04/24 13:22:46;;;;;;;4.85;1.30;;;9.50;99.90;;;;;;5070100;28;20040;-68
2022/04/24 13:25:50;;;;;;;4.28;1.42;;;9.50;99.90;;;;;;5069947;28;20033;-70
2022/04/24 13:28:54;;;;;;;5.32;1.92;;;9.40;99.90;;;;;;5069819;28;20045;-69
2022/04/24 13:31:58;;;;;;;4.15;1.30;;;9.40;99.90;;;;;;5057263;28;20388;-70
2022/04/24 13:35:02;;;;;;;7.30;1.60;;;9.30;99.90;;;;;;5069776;28;20032;-69
2022/04/24 13:38:18;;;;;;;13.85;7.40;;;9.50;99.90;;;;;;5069285;28;20487;-69
2022/04/24 13:41:22;;;;;;;12.00;4.00;;;9.60;99.90;;;;;;5069273;28;20029;-69
2022/04/24 13:44:26;;;;;;;13.45;8.05;;;9.60;99.90;;;;;;5069537;28;20036;-70
2022/04/24 13:47:31;;;;;;;8.13;4.30;;;9.70;99.90;;;;;;5070552;28;20028;-69
2022/04/24 13:50:35;;;;;;;17.35;8.32;;;9.70;99.90;;;;;;5072960;28;20037;-69
2022/04/24 13:53:40;;;;;;;13.27;7.63;;;9.90;99.90;;;;;;5073636;28;20055;-69
2022/04/24 13:56:45;;;;;;;11.88;7.43;;;9.90;99.90;;;;;;5073018;28;20057;-70
2022/04/24 13:59:50;;;;;;;11.27;4.25;;;10.10;99.90;;;;;;5073243;28;20044;-70
2022/04/24 14:02:57;;;;;;;12.93;4.03;;;10.20;99.90;;;;;;5073175;28;20055;-69
2022/04/24 14:06:01;;;;;;;12.38;3.33;;;10.20;99.90;;;;;;5060399;28;20047;-70
2022/04/24 14:09:05;;;;;;;15.57;3.38;;;10.30;99.90;;;;;;5073115;28;20489;-70
2022/04/24 14:12:10;;;;;;;12.95;3.30;;;10.20;99.90;;;;;;5072507;28;20047;-70
2022/04/24 14:25:04;;;;;;;9.60;2.20;;;10.20;99.90;;;;;;5073158;28;20418;-69
2022/04/24 14:28:09;;;;;;;3.90;2.00;;;10.10;99.90;;;;;;5072281;28;20503;-70
2022/04/24 14:31:13;;;;;;;8.27;1.65;;;10.20;99.90;;;;;;5073067;28;20388;-70
2022/04/24 14:34:19;;;;;;;8.27;2.10;;;10.10;99.90;;;;;;5072913;28;20043;-70
2022/04/24 14:37:23;;;;;;;5.55;2.33;;;10.20;99.90;;;;;;5072785;28;20055;-70
2022/04/24 14:40:29;;;;;;;11.55;2.30;;;10.30;99.90;;;;;;5072916;28;20032;-70
2022/04/24 14:43:34;;;;;;;4.78;2.33;;;10.40;99.90;;;;;;5073249;28;20051;-70
2022/04/24 14:56:46;;;;;;;;;;;10.40;99.90;;;;;;5072240;28;20051;-70
2022/04/24 14:59:49;;;;;;;6.57;1.23;;;10.40;99.90;;;;;;5072298;28;20286;-70
2022/04/24 15:02:54;;;;;;;5.72;1.23;;;10.30;99.90;;;;;;5072187;28;20386;-70
2022/04/24 15:05:58;;;;;;;6.97;1.30;;;10.30;99.90;;;;;;5072009;28;20052;-70
2022/04/24 15:09:02;;;;;;;3.38;1.20;;;10.40;99.90;;;;;;5071827;28;20048;-70
2022/04/24 15:12:07;;;;;;;6.72;1.30;;;10.40;99.90;;;;;;5071677;28;20048;-70
2022/04/24 15:15:13;;;;;;;7.90;2.05;;;10.40;99.90;;;;;;5071947;28;20036;-70
2022/04/24 15:18:18;;;;;;;3.42;1.95;;;10.40;99.90;;;;;;5071612;28;20391;-70
2022/04/24 15:21:23;;;;;;;4.32;1.75;;;10.50;99.90;;;;;;5070243;28;20056;-70
2022/04/24 15:24:27;;;;;;;7.05;2.15;;;10.60;99.90;;;;;;5071544;28;20047;-70
2022/04/24 15:27:32;;;;;;;4.38;1.65;;;10.70;99.90;;;;;;5070888;28;20052;-70
2022/04/24 15:30:36;;;;;;;2.78;1.17;;;10.80;99.90;;;;;;5071598;28;20048;-70
2022/04/24 15:33:41;;;;;;;2.22;1.00;;;10.90;99.90;;;;;;5071828;28;20387;-70
2022/04/24 15:36:49;;;;;;;2.47;1.40;;;11.00;99.90;;;;;;5070936;28;20033;-69
2022/04/24 15:39:56;;;;;;;4.22;2.50;;;11.00;99.90;;;;;;5071446;28;20059;-70
2022/04/24 15:43:01;;;;;;;3.72;1.45;;;11.10;99.90;;;;;;5071319;28;20046;-70
2022/04/24 15:46:06;;;;;;;5.22;3.53;;;11.00;99.90;;;;;;5071219;28;20402;-70
2022/04/24 15:49:11;;;;;;;6.50;4.25;;;10.90;99.90;;;;;;5071265;28;20045;-69
2022/04/24 15:52:15;;;;;;;3.55;1.98;;;11.10;99.90;;;;;;5071036;28;20039;-69
2022/04/24 15:55:20;;;;;;;2.95;1.77;;;11.30;99.90;;;;;;5071379;28;20051;-70
2022/04/24 15:58:24;;;;;;;5.30;1.70;;;11.30;99.90;;;;;;5058658;28;20055;-70
2022/04/24 16:01:29;;;;;;;3.03;1.30;;;11.30;99.90;;;;;;5070642;28;20402;-70
2022/04/24 16:04:34;;;;;;;4.07;1.20;;;11.50;99.90;;;;;;5070894;28;20501;-70
2022/04/24 16:07:39;;;;;;;3.05;2.17;;;11.60;99.90;;;;;;5070336;28;20051;-70
2022/04/24 16:10:44;;;;;;;2.83;1.60;;;11.70;99.90;;;;;;5070277;28;20494;-71
2022/04/24 16:13:49;;;;;;;5.13;2.20;;;11.70;99.90;;;;;;5070605;28;20490;-71
2022/04/24 16:16:53;;;;;;;2.72;1.75;;;11.80;99.90;;;;;;5046089;28;20045;-70
2022/04/24 16:19:58;;;;;;;10.10;5.53;;;11.90;99.90;;;;;;5070728;28;20049;-70
2022/04/24 16:23:03;;;;;;;7.45;4.07;;;12.20;99.90;;;;;;5070345;28;20052;-70
2022/04/24 16:26:07;;;;;;;15.32;9.35;;;12.60;99.90;;;;;;5070229;28;20040;-70
2022/04/24 16:29:55;;;;;;;16.20;8.70;;;13.00;99.90;;;;;;5070264;28;20051;-70
2022/04/24 16:32:36;;;;;;;19.83;9.80;;;13.30;99.90;;;;;;5070316;28;20044;-70
2022/04/24 16:35:40;;;;;;;0.93;0.52;;;13.20;99.90;;;;;;5058090;28;20051;-70
2022/04/24 16:38:44;;;;;;;0.60;0.40;;;12.90;99.90;;;;;;5070585;28;20053;-70
2022/04/24 16:41:48;;;;;;;0.70;0.50;;;12.00;99.90;;;;;;5057916;28;20036;-69
2022/04/24 16:44:51;;;;;;;2.55;0.80;;;11.80;99.90;;;;;;5057736;28;20044;-69
2022/04/24 16:47:56;;;;;;;7.50;4.90;;;11.80;99.90;;;;;;5069750;28;20055;-69
2022/04/24 17:01:10;;;;;;;1.55;0.60;;;12.00;99.90;;;;;;5070398;28;20037;-69
2022/04/24 17:04:14;;;;;;;0.63;0.30;;;11.80;99.90;;;;;;5070510;28;20513;-69
2022/04/24 17:07:23;;;;;;;1.10;0.40;;;11.60;99.90;;;;;;5057069;28;20049;-69
2022/04/24 17:10:28;;;;;;;3.88;0.55;;;10.90;99.90;;;;;;5058582;28;20041;-69
2022/04/24 17:13:34;;;;;;;3.15;1.20;;;10.80;99.90;;;;;;5046295;28;20032;-69
2022/04/24 17:16:38;;;;;;;3.72;0.80;;;10.80;99.90;;;;;;5069916;28;20040;-68
2022/04/24 17:19:43;;;;;;;2.22;0.80;;;10.80;99.90;;;;;;5069702;28;20040;-69
2022/04/24 17:22:47;;;;;;;1.40;1.00;;;10.70;99.90;;;;;;5074247;28;20047;-69
2022/04/24 17:25:51;;;;;;;4.18;2.88;;;10.50;99.90;;;;;;5073676;28;20033;-69
2022/04/24 17:28:55;;;;;;;2.80;1.13;;;10.50;99.90;;;;;;5073748;28;20330;-69
2022/04/24 17:32:04;;;;;;;5.55;2.15;;;10.40;99.90;;;;;;5073892;28;20051;-68
2022/04/24 17:35:08;;;;;;;3.65;2.17;;;10.40;99.90;;;;;;5073635;28;20036;-69
2022/04/24 17:38:12;;;;;;;4.53;2.03;;;10.40;99.90;;;;;;5073199;28;20103;-68
2022/04/24 17:41:16;;;;;;;3.47;2.47;;;10.40;99.90;;;;;;5073839;28;20055;-69